createdAt,value
2023-04-18T05:03:20.231Z,500.00
2023-04-18T05:04:21.187Z,500.00
2023-04-18T05:05:21.096Z,500.00
2023-04-18T05:06:20.138Z,500.00
2023-04-18T05:07:21.116Z,500.00
2023-04-18T05:08:20.165Z,500.00
2023-04-18T05:09:20.224Z,400.00
2023-04-18T05:10:21.260Z,400.00
2023-04-18T05:11:20.261Z,400.00
2023-04-18T05:12:21.249Z,400.00
2023-04-18T05:13:21.255Z,400.00
2023-04-18T05:14:20.245Z,400.00
2023-04-18T05:15:21.284Z,400.00
2023-04-18T05:16:20.264Z,400.00
2023-04-18T05:17:21.280Z,400.00
2023-04-18T05:18:20.345Z,400.00
2023-04-18T05:19:21.363Z,400.00
2023-04-18T05:20:21.388Z,400.00
2023-04-18T05:21:20.439Z,400.00
2023-04-18T05:22:20.500Z,400.00
2023-04-18T05:23:21.511Z,400.00
2023-04-18T05:24:21.524Z,400.00
2023-04-18T05:25:20.532Z,409.00
2023-04-18T05:26:21.566Z,463.00
2023-04-18T05:27:20.652Z,500.00
2023-04-18T05:28:21.644Z,503.00
2023-04-18T05:29:21.655Z,500.00
2023-04-18T05:30:20.677Z,501.00
2023-04-18T05:31:20.791Z,500.00
2023-04-18T05:32:21.678Z,500.00
2023-04-18T05:33:21.679Z,505.00
2023-04-18T05:34:21.690Z,509.00
2023-04-18T05:35:20.775Z,506.00
2023-04-18T05:36:21.809Z,505.00
2023-04-18T05:37:21.854Z,509.00
2023-04-18T05:38:20.870Z,505.00
2023-04-18T05:39:21.922Z,512.00
2023-04-18T05:40:21.994Z,514.00
2023-04-18T05:41:21.973Z,521.00
2023-04-18T05:42:21.976Z,522.00
2023-04-18T05:43:21.989Z,525.00
2023-04-18T05:44:21.381Z,527.00
2023-04-18T05:45:21.135Z,528.00
2023-04-18T05:46:22.073Z,524.00
2023-04-18T05:47:21.157Z,530.00
2023-04-18T05:48:21.034Z,533.00
2023-04-18T05:49:22.036Z,529.00
2023-04-18T05:50:22.072Z,543.00
2023-04-18T05:51:22.127Z,545.00
2023-04-18T05:52:22.132Z,552.00
2023-04-18T05:53:22.183Z,557.00
2023-04-18T05:54:22.252Z,556.00
2023-04-18T05:55:21.306Z,556.00
2023-04-18T05:56:22.334Z,559.00
2023-04-18T05:57:22.408Z,561.00
2023-04-18T05:58:22.420Z,566.00
2023-04-18T05:59:22.493Z,567.00
2023-04-18T06:00:22.670Z,571.00
2023-04-18T06:01:22.575Z,568.00
2023-04-18T06:02:22.271Z,560.00
2023-04-18T06:03:22.933Z,496.00
2023-04-18T06:04:22.834Z,496.00
2023-04-18T06:05:24.724Z,506.00
2023-04-18T06:06:22.693Z,499.00
2023-04-18T06:07:22.780Z,497.00
2023-04-18T06:08:21.839Z,496.00
2023-04-18T06:09:22.688Z,593.00
2023-04-18T06:10:21.665Z,553.00
2023-04-18T06:11:21.920Z,566.00
2023-04-18T06:12:22.646Z,562.00
2023-04-18T06:13:21.650Z,563.00
2023-04-18T06:14:22.635Z,569.00
2023-04-18T06:15:21.644Z,571.00
2023-04-18T06:16:21.669Z,578.00
2023-04-18T06:17:21.674Z,588.00
2023-04-18T06:18:22.619Z,597.00
2023-04-18T06:19:21.598Z,593.00
2023-04-18T06:20:22.642Z,598.00
2023-04-18T06:21:22.585Z,597.00
2023-04-18T06:22:22.582Z,604.00
2023-04-18T06:23:22.593Z,603.00
2023-04-18T06:24:21.555Z,603.00
2023-04-18T06:25:22.574Z,604.00
2023-04-18T06:26:22.540Z,601.00
2023-04-18T06:27:31.021Z,606.00
2023-04-18T06:28:22.537Z,607.00
2023-04-18T06:29:22.525Z,608.00
2023-04-18T06:30:21.544Z,609.00
2023-04-18T06:31:22.522Z,609.00
2023-04-18T06:32:22.554Z,610.00
2023-04-18T06:33:22.518Z,613.00
2023-04-18T06:34:22.494Z,615.00
2023-04-18T06:35:21.521Z,614.00
2023-04-18T06:36:21.482Z,620.00
2023-04-18T06:37:22.477Z,621.00
2023-04-18T06:38:22.476Z,620.00
2023-04-18T06:39:22.487Z,617.00
2023-04-18T06:40:21.472Z,630.00
2023-04-18T06:41:22.472Z,631.00
2023-04-18T06:42:22.951Z,627.00
2023-04-18T06:43:22.439Z,631.00
2023-04-18T06:44:22.428Z,634.00
2023-04-18T06:45:22.427Z,631.00
2023-04-18T06:46:22.523Z,632.00
2023-04-18T06:47:22.435Z,634.00
2023-04-18T06:48:22.410Z,628.00
2023-04-18T06:49:26.438Z,628.00
2023-04-18T06:50:21.397Z,629.00
2023-04-18T06:51:22.381Z,629.00
2023-04-18T06:52:22.371Z,631.00
2023-04-18T06:53:22.380Z,632.00
2023-04-18T06:54:22.395Z,642.00
2023-04-18T06:55:21.485Z,652.00
2023-04-18T06:56:21.522Z,654.00
2023-04-18T06:57:21.579Z,662.00
2023-04-18T06:58:21.613Z,664.00
2023-04-18T06:59:21.697Z,653.00
2023-04-18T07:00:21.754Z,701.00
2023-04-18T07:01:21.793Z,698.00
2023-04-18T07:02:22.924Z,678.00
2023-04-18T07:03:23.075Z,679.00
2023-04-18T07:04:23.082Z,664.00
2023-04-18T07:05:22.973Z,665.00
2023-04-18T07:06:23.023Z,663.00
2023-04-18T07:07:22.079Z,654.00
2023-04-18T07:08:22.153Z,657.00
2023-04-18T07:09:23.209Z,661.00
2023-04-18T07:10:22.277Z,657.00
2023-04-18T07:11:22.449Z,657.00
2023-04-18T07:12:23.541Z,656.00
2023-04-18T07:13:23.525Z,653.00
2023-04-18T07:14:23.480Z,657.00
2023-04-18T07:15:22.529Z,656.00
2023-04-18T07:16:23.680Z,658.00
2023-04-18T07:17:22.680Z,665.00
2023-04-18T07:18:36.778Z,658.00
2023-04-18T07:19:23.684Z,659.00
2023-04-18T07:20:22.679Z,660.00
2023-04-18T07:21:23.672Z,660.00
2023-04-18T07:22:22.670Z,662.00
2023-04-18T07:23:22.682Z,663.00
2023-04-18T07:24:22.652Z,665.00
2023-04-18T07:25:23.633Z,660.00
2023-04-18T07:26:23.637Z,661.00
2023-04-18T07:27:23.651Z,653.00
2023-04-18T07:28:22.615Z,663.00
2023-04-18T07:29:23.651Z,664.00
2023-04-18T07:30:23.619Z,675.00
2023-04-18T07:31:23.642Z,679.00
2023-04-18T07:32:23.613Z,681.00
2023-04-18T07:33:23.574Z,689.00
2023-04-18T07:34:23.582Z,685.00
2023-04-18T07:35:23.591Z,679.00
2023-04-18T07:36:23.602Z,682.00
2023-04-18T07:37:23.617Z,683.00
2023-04-18T07:38:23.556Z,673.00
2023-04-18T07:39:23.538Z,669.00
2023-04-18T07:40:23.547Z,671.00
2023-04-18T07:41:23.546Z,673.00
2023-04-18T07:42:23.537Z,682.00
2023-04-18T07:43:22.549Z,687.00
2023-04-18T07:44:23.518Z,703.00
2023-04-18T07:45:23.586Z,712.00
2023-04-18T07:46:23.593Z,719.00
2023-04-18T07:47:22.728Z,711.00
2023-04-18T07:48:23.509Z,742.00
2023-04-18T07:49:23.484Z,750.00
2023-04-18T07:50:23.532Z,765.00
2023-04-18T07:51:23.698Z,778.00
2023-04-18T07:52:23.555Z,787.00
2023-04-18T07:53:23.594Z,792.00
2023-04-18T07:54:23.584Z,807.00
2023-04-18T07:55:23.599Z,830.00
2023-04-18T07:56:23.631Z,840.00
2023-04-18T07:57:23.626Z,842.00
2023-04-18T07:58:23.617Z,853.00
2023-04-18T07:59:23.808Z,855.00
2023-04-18T08:00:22.648Z,858.00
2023-04-18T08:01:23.640Z,872.00
2023-04-18T08:02:22.792Z,883.00
2023-04-18T08:03:23.819Z,882.00
2023-04-18T08:04:23.774Z,881.00
2023-04-18T08:05:23.754Z,893.00
2023-04-18T08:06:23.662Z,902.00
2023-04-18T08:07:23.681Z,899.00
2023-04-18T08:08:22.726Z,900.00
2023-04-18T08:09:22.722Z,895.00
2023-04-18T08:10:23.958Z,916.00
2023-04-18T08:11:23.764Z,919.00
2023-04-18T08:12:23.779Z,930.00
2023-04-18T08:13:23.837Z,914.00
2023-04-18T08:14:23.812Z,911.00
2023-04-18T08:15:23.820Z,908.00
2023-04-18T08:16:23.842Z,921.00
2023-04-18T08:17:22.849Z,924.00
2023-04-18T08:18:23.806Z,925.00
2023-04-18T08:19:22.839Z,921.00
2023-04-18T08:20:23.901Z,924.00
2023-04-18T08:21:22.956Z,926.00
2023-04-18T08:22:23.905Z,928.00
2023-04-18T08:23:22.915Z,926.00
2023-04-18T08:24:23.921Z,928.00
2023-04-18T08:25:22.961Z,931.00
2023-04-18T08:26:22.931Z,921.00
2023-04-18T08:27:22.918Z,918.00
2023-04-18T08:28:23.914Z,915.00
2023-04-18T08:29:22.918Z,902.00
2023-04-18T08:30:22.954Z,902.00
2023-04-18T08:31:23.027Z,880.00
2023-04-18T08:32:23.976Z,868.00
2023-04-18T08:33:23.917Z,854.00
2023-04-18T08:34:23.907Z,865.00
2023-04-18T08:35:22.935Z,857.00
2023-04-18T08:36:23.980Z,847.00
2023-04-18T08:37:22.958Z,839.00
2023-04-18T08:38:23.897Z,839.00
2023-04-18T08:39:25.322Z,830.00
2023-04-18T08:40:23.944Z,812.00
2023-04-18T08:41:23.214Z,832.00
2023-04-18T08:42:22.977Z,819.00
2023-04-18T08:43:23.960Z,782.00
2023-04-18T08:44:22.960Z,804.00
2023-04-18T08:45:22.954Z,787.00
2023-04-18T08:46:24.002Z,742.00
2023-04-18T08:47:24.023Z,683.00
2023-04-18T08:48:24.009Z,637.00
2023-04-18T08:49:24.043Z,589.00
2023-04-18T08:50:24.110Z,590.00
2023-04-18T08:51:24.078Z,621.00
2023-04-18T08:52:24.080Z,655.00
2023-04-18T08:53:24.070Z,646.00
2023-04-18T08:54:25.594Z,646.00
2023-04-18T08:55:23.104Z,646.00
2023-04-18T08:56:24.208Z,628.00
2023-04-18T08:57:24.108Z,648.00
2023-04-18T08:58:23.088Z,661.00
2023-04-18T08:59:23.089Z,684.00
2023-04-18T09:00:23.082Z,688.00
2023-04-18T09:01:23.137Z,686.00
2023-04-18T09:02:24.201Z,689.00
2023-04-18T09:03:24.169Z,693.00
2023-04-18T09:04:24.097Z,690.00
2023-04-18T09:05:24.050Z,706.00
2023-04-18T09:06:23.051Z,714.00
2023-04-18T09:07:24.060Z,729.00
2023-04-18T09:08:23.048Z,737.00
2023-04-18T09:09:24.015Z,758.00
2023-04-18T09:10:24.054Z,765.00
2023-04-18T09:11:23.006Z,790.00
2023-04-18T09:12:24.001Z,797.00
2023-04-18T09:13:24.607Z,808.00
2023-04-18T09:14:23.012Z,816.00
2023-04-18T09:15:22.988Z,829.00
2023-04-18T09:16:23.983Z,848.00
2023-04-18T09:17:23.988Z,855.00
2023-04-18T09:18:23.994Z,818.00
2023-04-18T09:19:24.005Z,826.00
2023-04-18T09:20:22.964Z,833.00
2023-04-18T09:21:23.984Z,814.00
2023-04-18T09:22:23.948Z,832.00
2023-04-18T09:23:23.921Z,808.00
2023-04-18T09:24:22.926Z,814.00
2023-04-18T09:25:22.934Z,816.00
2023-04-18T09:26:24.001Z,811.00
2023-04-18T09:27:24.041Z,808.00
2023-04-18T09:28:24.099Z,817.00
2023-04-18T09:29:23.121Z,802.00
2023-04-18T09:30:23.177Z,801.00
2023-04-18T09:31:23.254Z,782.00
2023-04-18T09:32:24.290Z,788.00
2023-04-18T09:33:23.339Z,797.00
2023-04-18T09:34:23.412Z,801.00
2023-04-18T09:35:24.522Z,805.00
2023-04-18T09:36:24.591Z,802.00
2023-04-18T09:37:24.585Z,773.00
2023-04-18T09:38:24.647Z,800.00
2023-04-18T09:39:24.734Z,783.00
2023-04-18T09:40:24.806Z,791.00
2023-04-18T09:41:23.859Z,802.00
2023-04-18T09:42:26.201Z,800.00
2023-04-18T09:43:23.882Z,801.00
2023-04-18T09:44:23.885Z,803.00
2023-04-18T09:45:23.865Z,809.00
2023-04-18T09:46:25.294Z,813.00
2023-04-18T09:47:24.901Z,809.00
2023-04-18T09:48:24.859Z,685.00
2023-04-18T09:49:23.848Z,758.00
2023-04-18T09:50:23.874Z,805.00
2023-04-18T09:51:24.868Z,799.00
2023-04-18T09:52:25.230Z,800.00
2023-04-18T09:53:24.797Z,803.00
2023-04-18T09:54:24.790Z,820.00
2023-04-18T09:55:24.795Z,814.00
2023-04-18T09:56:23.774Z,808.00
2023-04-18T09:57:23.785Z,816.00
2023-04-18T09:58:24.777Z,825.00
2023-04-18T09:59:23.759Z,815.00
2023-04-18T10:00:23.799Z,822.00
2023-04-18T10:01:23.782Z,809.00
2023-04-18T10:02:24.816Z,818.00
2023-04-18T10:03:23.823Z,808.00
2023-04-18T10:04:24.794Z,804.00
2023-04-18T10:05:24.745Z,795.00
2023-04-18T10:06:24.709Z,787.00
2023-04-18T10:07:24.737Z,781.00
2023-04-18T10:08:24.717Z,785.00
2023-04-18T10:09:23.682Z,787.00
2023-04-18T10:10:23.715Z,796.00
2023-04-18T10:11:24.688Z,779.00
2023-04-18T10:12:24.673Z,797.00
2023-04-18T10:13:23.667Z,784.00
2023-04-18T10:14:23.653Z,780.00
2023-04-18T10:15:24.654Z,777.00
2023-04-18T10:16:23.708Z,772.00
2023-04-18T10:17:23.685Z,772.00
2023-04-18T10:18:23.690Z,762.00
2023-04-18T10:19:24.692Z,776.00
2023-04-18T10:20:23.689Z,768.00
2023-04-18T10:21:24.619Z,766.00
2023-04-18T10:22:24.632Z,780.00
2023-04-18T10:23:23.664Z,788.00
2023-04-18T10:24:24.581Z,785.00
2023-04-18T10:25:23.586Z,800.00
2023-04-18T10:26:24.597Z,779.00
2023-04-18T10:27:23.569Z,791.00
2023-04-18T10:28:24.246Z,780.00
2023-04-18T10:29:23.553Z,796.00
2023-04-18T10:30:24.538Z,793.00
2023-04-18T10:31:24.608Z,804.00
2023-04-18T10:32:24.563Z,803.00
2023-04-18T10:33:29.928Z,777.00
2023-04-18T10:34:24.519Z,778.00
2023-04-18T10:35:24.506Z,781.00
2023-04-18T10:36:24.641Z,788.00
2023-04-18T10:37:24.501Z,789.00
2023-04-18T10:38:24.501Z,795.00
2023-04-18T10:39:24.515Z,776.00
2023-04-18T10:40:23.479Z,798.00
2023-04-18T10:41:24.500Z,792.00
2023-04-18T10:42:23.736Z,797.00
2023-04-18T10:43:23.456Z,786.00
2023-04-18T10:44:24.499Z,774.00
2023-04-18T10:45:23.461Z,793.00
2023-04-18T10:46:31.592Z,772.00
2023-04-18T10:47:24.964Z,773.00
2023-04-18T10:48:24.500Z,772.00
2023-04-18T10:49:26.793Z,778.00
2023-04-18T10:50:23.405Z,773.00
2023-04-18T10:51:24.394Z,775.00
2023-04-18T10:52:23.397Z,775.00
2023-04-18T10:53:24.404Z,781.00
2023-04-18T10:54:24.372Z,774.00
2023-04-18T10:55:24.391Z,783.00
2023-04-18T10:56:24.377Z,777.00
2023-04-18T10:57:23.347Z,774.00
2023-04-18T10:58:24.357Z,765.00
2023-04-18T10:59:24.331Z,772.00
2023-04-18T11:00:23.326Z,771.00
2023-04-18T11:01:24.365Z,779.00
2023-04-18T11:02:23.430Z,781.00
2023-04-18T11:03:24.362Z,781.00
2023-04-18T11:04:23.321Z,785.00
2023-04-18T11:05:23.280Z,780.00
2023-04-18T11:06:24.281Z,772.00
2023-04-18T11:07:24.279Z,794.00
2023-04-18T11:08:24.277Z,788.00
2023-04-18T11:09:24.260Z,789.00
2023-04-18T11:10:23.251Z,777.00
2023-04-18T11:11:24.280Z,793.00
2023-04-18T11:12:23.255Z,793.00
2023-04-18T11:13:23.234Z,778.00
2023-04-18T11:14:24.220Z,787.00
2023-04-18T11:15:24.226Z,779.00
2023-04-18T11:16:24.241Z,781.00
2023-04-18T11:17:24.351Z,787.00
2023-04-18T11:18:24.199Z,769.00
2023-04-18T11:19:23.185Z,778.00
2023-04-18T11:20:24.185Z,778.00
2023-04-18T11:21:24.180Z,768.00
2023-04-18T11:22:24.163Z,774.00
2023-04-18T11:23:24.213Z,778.00
2023-04-18T11:24:24.405Z,785.00
2023-04-18T11:25:24.226Z,783.00
2023-04-18T11:26:23.208Z,781.00
2023-04-18T11:27:23.162Z,798.00
2023-04-18T11:28:23.125Z,798.00
2023-04-18T11:29:23.121Z,810.00
2023-04-18T11:30:23.123Z,808.00
2023-04-18T11:31:23.133Z,813.00
2023-04-18T11:32:23.277Z,809.00
2023-04-18T11:33:24.167Z,799.00
2023-04-18T11:34:23.086Z,808.00
2023-04-18T11:35:24.079Z,810.00
2023-04-18T11:36:23.092Z,807.00
2023-04-18T11:37:24.268Z,812.00
2023-04-18T11:38:24.279Z,824.00
2023-04-18T11:39:23.059Z,827.00
2023-04-18T11:40:24.043Z,827.00
2023-04-18T11:41:24.038Z,813.00
2023-04-18T11:42:24.048Z,829.00
2023-04-18T11:43:24.081Z,826.00
2023-04-18T11:44:24.015Z,809.00
2023-04-18T11:45:24.012Z,805.00
2023-04-18T11:46:24.072Z,812.00
2023-04-18T11:47:23.038Z,807.00
2023-04-18T11:48:22.986Z,807.00
2023-04-18T11:49:22.969Z,812.00
2023-04-18T11:50:22.973Z,802.00
2023-04-18T11:51:23.952Z,815.00
2023-04-18T11:52:22.954Z,807.00
2023-04-18T11:53:22.952Z,788.00
2023-04-18T11:54:23.938Z,802.00
2023-04-18T11:55:22.937Z,799.00
2023-04-18T11:56:23.920Z,798.00
2023-04-18T11:57:23.908Z,802.00
2023-04-18T11:58:22.904Z,811.00
2023-04-18T11:59:22.915Z,812.00
2023-04-18T12:00:22.887Z,809.00
2023-04-18T12:01:22.918Z,805.00
2023-04-18T12:02:23.981Z,801.00
2023-04-18T12:03:24.004Z,786.00
2023-04-18T12:04:23.089Z,801.00
2023-04-18T12:05:23.120Z,793.00
2023-04-18T12:06:24.151Z,830.00
2023-04-18T12:07:23.831Z,902.00
2023-04-18T12:08:23.849Z,938.00
2023-04-18T12:09:23.845Z,945.00
2023-04-18T12:10:23.819Z,976.00
2023-04-18T12:11:22.804Z,1004.00
2023-04-18T12:12:23.809Z,1014.00
2023-04-18T12:13:23.789Z,1021.00
2023-04-18T12:14:22.779Z,1055.00
2023-04-18T12:15:22.907Z,1037.00
2023-04-18T12:16:22.804Z,1035.00
2023-04-18T12:17:23.823Z,1034.00
2023-04-18T12:18:23.748Z,1044.00
2023-04-18T12:19:23.740Z,1034.00
2023-04-18T12:20:23.736Z,1033.00
2023-04-18T12:21:22.732Z,1043.00
2023-04-18T12:22:23.728Z,1050.00
2023-04-18T12:23:22.741Z,1049.00
2023-04-18T12:24:23.726Z,1041.00
2023-04-18T12:25:27.100Z,1040.00
2023-04-18T12:26:22.730Z,1041.00
2023-04-18T12:27:23.679Z,1042.00
2023-04-18T12:28:22.681Z,1040.00
2023-04-18T12:29:23.692Z,1044.00
2023-04-18T12:30:22.661Z,1050.00
2023-04-18T12:31:23.746Z,1040.00
2023-04-18T12:32:23.662Z,1029.00
2023-04-18T12:33:23.648Z,1026.00
2023-04-18T12:34:22.680Z,1011.00
2023-04-18T12:35:22.633Z,1020.00
2023-04-18T12:36:22.612Z,1005.00
2023-04-18T12:37:23.621Z,1017.00
2023-04-18T12:38:22.615Z,1012.00
2023-04-18T12:39:22.606Z,1020.00
2023-04-18T12:40:22.624Z,1004.00
2023-04-18T12:41:22.590Z,1003.00
2023-04-18T12:42:22.574Z,1001.00
2023-04-18T12:43:23.570Z,993.00
2023-04-18T12:44:22.568Z,987.00
2023-04-18T12:45:23.557Z,993.00
2023-04-18T12:46:22.575Z,997.00
2023-04-18T12:47:22.632Z,980.00
2023-04-18T12:48:22.539Z,982.00
2023-04-18T12:49:23.529Z,978.00
2023-04-18T12:50:22.568Z,992.00
2023-04-18T12:51:23.515Z,984.00
2023-04-18T12:52:22.503Z,980.00
2023-04-18T12:53:23.527Z,973.00
2023-04-18T12:54:23.499Z,975.00
2023-04-18T12:55:22.498Z,978.00
2023-04-18T12:56:23.485Z,975.00
2023-04-18T12:57:22.475Z,969.00
2023-04-18T12:58:22.467Z,972.00
2023-04-18T12:59:23.466Z,952.00
2023-04-18T13:00:23.551Z,963.00
2023-04-18T13:01:22.491Z,955.00
2023-04-18T13:02:22.541Z,954.00
2023-04-18T13:03:23.731Z,952.00
2023-04-18T13:04:23.628Z,957.00
2023-04-18T13:05:22.426Z,961.00
2023-04-18T13:06:23.413Z,943.00
2023-04-18T13:07:23.439Z,943.00
2023-04-18T13:08:23.401Z,943.00
2023-04-18T13:09:23.409Z,941.00
2023-04-18T13:10:23.407Z,938.00
2023-04-18T13:11:23.368Z,947.00
2023-04-18T13:12:23.370Z,947.00
2023-04-18T13:13:22.387Z,926.00
2023-04-18T13:14:23.349Z,941.00
2023-04-18T13:15:22.381Z,945.00
2023-04-18T13:16:23.453Z,931.00
2023-04-18T13:17:22.369Z,934.00
2023-04-18T13:18:22.373Z,927.00
2023-04-18T13:19:23.372Z,947.00
2023-04-18T13:20:23.323Z,929.00
2023-04-18T13:21:23.321Z,927.00
2023-04-18T13:22:23.310Z,928.00
2023-04-18T13:23:23.323Z,930.00
2023-04-18T13:24:22.303Z,933.00
2023-04-18T13:25:23.282Z,919.00
2023-04-18T13:26:23.283Z,920.00
2023-04-18T13:27:22.273Z,928.00
2023-04-18T13:28:22.277Z,928.00
2023-04-18T13:29:22.270Z,924.00
2023-04-18T13:30:23.271Z,949.00
2023-04-18T13:31:23.257Z,938.00
2023-04-18T13:32:23.253Z,942.00
2023-04-18T13:33:23.247Z,940.00
2023-04-18T13:34:23.287Z,931.00
2023-04-18T13:35:22.310Z,916.00
2023-04-18T13:36:23.292Z,896.00
2023-04-18T13:37:22.338Z,917.00
2023-04-18T13:38:22.357Z,909.00
2023-04-18T13:39:22.405Z,899.00
2023-04-18T13:40:23.433Z,905.00
2023-04-18T13:41:22.418Z,897.00
2023-04-18T13:42:22.413Z,907.00
2023-04-18T13:43:22.446Z,910.00
2023-04-18T13:44:22.429Z,905.00
2023-04-18T13:45:23.443Z,896.00
2023-04-18T13:46:23.456Z,890.00
2023-04-18T13:47:22.452Z,904.00
2023-04-18T13:48:23.454Z,897.00
2023-04-18T13:49:23.482Z,899.00
2023-04-18T13:50:22.467Z,898.00
2023-04-18T13:51:23.482Z,896.00
2023-04-18T13:52:22.480Z,904.00
2023-04-18T13:53:23.470Z,899.00
2023-04-18T13:54:23.438Z,902.00
2023-04-18T13:55:23.447Z,897.00
2023-04-18T13:56:23.452Z,918.00
2023-04-18T13:57:22.462Z,898.00
2023-04-18T13:58:22.483Z,889.00
2023-04-18T13:59:22.511Z,888.00
2023-04-18T14:00:23.534Z,883.00
2023-04-18T14:01:23.704Z,879.00
2023-04-18T14:02:23.673Z,883.00
2023-04-18T14:03:22.924Z,876.00
2023-04-18T14:04:23.827Z,888.00
2023-04-18T14:05:23.676Z,890.00
2023-04-18T14:06:22.721Z,870.00
2023-04-18T14:07:23.837Z,877.00
2023-04-18T14:08:23.843Z,880.00
2023-04-18T14:09:23.912Z,854.00
2023-04-18T14:10:22.956Z,864.00
2023-04-18T14:11:22.978Z,861.00
2023-04-18T14:12:24.034Z,864.00
2023-04-18T14:13:23.078Z,865.00
2023-04-18T14:14:24.148Z,885.00
2023-04-18T14:15:23.236Z,877.00
2023-04-18T14:16:24.293Z,875.00
2023-04-18T14:17:24.320Z,863.00
2023-04-18T14:18:23.386Z,866.00
2023-04-18T14:19:23.412Z,855.00
2023-04-18T14:20:23.435Z,870.00
2023-04-18T14:21:23.450Z,878.00
2023-04-18T14:22:23.511Z,878.00
2023-04-18T14:23:23.519Z,874.00
2023-04-18T14:24:23.525Z,878.00
2023-04-18T14:25:24.506Z,865.00
2023-04-18T14:26:23.495Z,875.00
2023-04-18T14:27:24.487Z,869.00
2023-04-18T14:28:24.480Z,862.00
2023-04-18T14:29:24.476Z,874.00
2023-04-18T14:30:23.471Z,862.00
2023-04-18T14:31:24.509Z,867.00
2023-04-18T14:32:23.496Z,849.00
2023-04-18T14:33:24.473Z,866.00
2023-04-18T14:34:23.488Z,854.00
2023-04-18T14:35:23.459Z,847.00
2023-04-18T14:36:23.453Z,850.00
2023-04-18T14:37:24.446Z,849.00
2023-04-18T14:38:23.447Z,854.00
2023-04-18T14:39:24.472Z,854.00
2023-04-18T14:40:24.465Z,850.00
2023-04-18T14:41:24.463Z,849.00
2023-04-18T14:42:23.445Z,861.00
2023-04-18T14:43:23.450Z,854.00
2023-04-18T14:44:23.442Z,855.00
2023-04-18T14:45:23.482Z,844.00
2023-04-18T14:46:23.462Z,845.00
2023-04-18T14:47:24.373Z,839.00
2023-04-18T14:48:23.504Z,853.00
2023-04-18T14:49:24.455Z,844.00
2023-04-18T14:50:23.505Z,855.00
2023-04-18T14:51:23.477Z,848.00
2023-04-18T14:52:24.468Z,844.00
2023-04-18T14:53:24.494Z,845.00
2023-04-18T14:54:23.493Z,835.00
2023-04-18T14:55:23.539Z,834.00
2023-04-18T14:56:23.533Z,819.00
2023-04-18T14:57:23.570Z,839.00
2023-04-18T14:58:24.520Z,841.00
2023-04-18T14:59:24.561Z,836.00
2023-04-18T15:00:24.557Z,843.00
2023-04-18T15:01:23.602Z,833.00
2023-04-18T15:02:23.647Z,823.00
2023-04-18T15:03:24.849Z,805.00
2023-04-18T15:04:24.893Z,844.00
2023-04-18T15:05:23.625Z,833.00
2023-04-18T15:06:24.649Z,831.00
2023-04-18T15:07:24.671Z,824.00
2023-04-18T15:08:24.690Z,810.00
2023-04-18T15:09:24.697Z,803.00
2023-04-18T15:10:24.724Z,817.00
2023-04-18T15:11:23.761Z,815.00
2023-04-18T15:12:24.768Z,814.00
2023-04-18T15:13:24.767Z,811.00
2023-04-18T15:14:24.816Z,808.00
2023-04-18T15:15:23.791Z,793.00
2023-04-18T15:16:24.943Z,810.00
2023-04-18T15:17:24.850Z,793.00
2023-04-18T15:18:24.855Z,799.00
2023-04-18T15:19:24.869Z,807.00
2023-04-18T15:20:24.196Z,813.00
2023-04-18T15:21:23.904Z,809.00
2023-04-18T15:22:23.928Z,821.00
2023-04-18T15:23:23.956Z,809.00
2023-04-18T15:24:25.007Z,811.00
2023-04-18T15:25:25.038Z,814.00
2023-04-18T15:26:24.069Z,804.00
2023-04-18T15:27:25.108Z,799.00
2023-04-18T15:28:24.164Z,804.00
2023-04-18T15:29:25.162Z,805.00
